sensor_id;sensor_type;location;lat;lon;timestamp;P1;durP1;ratioP1;P2;durP2;ratioP2
35552;SDS011;21656;46.054;13.614;2022-07-23T05:41:38;16.63;;;12.90;;
35552;SDS011;21656;46.054;13.614;2022-07-23T05:44:04;15.77;;;12.27;;
35552;SDS011;21656;46.054;13.614;2022-07-23T05:46:29;16.13;;;11.70;;
35552;SDS011;21656;46.054;13.614;2022-07-23T05:48:54;19.17;;;13.00;;
35552;SDS011;21656;46.054;13.614;2022-07-23T05:51:21;17.40;;;12.50;;
35552;SDS011;21656;46.054;13.614;2022-07-23T05:53:47;17.48;;;13.02;;
35552;SDS011;21656;46.054;13.614;2022-07-23T05:56:13;21.63;;;13.23;;
35552;SDS011;21656;46.054;13.614;2022-07-23T05:58:38;15.85;;;13.27;;
35552;SDS011;21656;46.054;13.614;2022-07-23T06:01:04;19.98;;;13.75;;
35552;SDS011;21656;46.054;13.614;2022-07-23T06:03:29;18.25;;;12.43;;
35552;SDS011;21656;46.054;13.614;2022-07-23T06:05:55;15.07;;;12.68;;
35552;SDS011;21656;46.054;13.614;2022-07-23T06:08:20;16.65;;;12.88;;
35552;SDS011;21656;46.054;13.614;2022-07-23T06:10:45;18.10;;;12.27;;
35552;SDS011;21656;46.054;13.614;2022-07-23T06:13:11;18.92;;;12.20;;
35552;SDS011;21656;46.054;13.614;2022-07-23T06:15:36;19.17;;;13.18;;
35552;SDS011;21656;46.054;13.614;2022-07-23T06:18:02;20.10;;;12.85;;
35552;SDS011;21656;46.054;13.614;2022-07-23T06:20:27;19.98;;;13.88;;
35552;SDS011;21656;46.054;13.614;2022-07-23T06:22:53;16.27;;;13.23;;
35552;SDS011;21656;46.054;13.614;2022-07-23T06:25:18;22.20;;;14.18;;
35552;SDS011;21656;46.054;13.614;2022-07-23T06:27:45;17.40;;;13.13;;
35552;SDS011;21656;46.054;13.614;2022-07-23T06:30:11;19.50;;;13.48;;
35552;SDS011;21656;46.054;13.614;2022-07-23T06:32:37;19.30;;;12.90;;
35552;SDS011;21656;46.054;13.614;2022-07-23T06:35:02;19.50;;;13.52;;
35552;SDS011;21656;46.054;13.614;2022-07-23T06:37:28;17.77;;;13.00;;
35552;SDS011;21656;46.054;13.614;2022-07-23T06:39:53;18.48;;;13.15;;
35552;SDS011;21656;46.054;13.614;2022-07-23T06:42:19;15.13;;;12.95;;
35552;SDS011;21656;46.054;13.614;2022-07-23T06:44:44;16.48;;;12.93;;
35552;SDS011;21656;46.054;13.614;2022-07-23T06:47:10;17.70;;;13.68;;
35552;SDS011;21656;46.054;13.614;2022-07-23T06:49:35;21.95;;;13.13;;
35552;SDS011;21656;46.054;13.614;2022-07-23T06:52:00;20.65;;;13.05;;
35552;SDS011;21656;46.054;13.614;2022-07-23T06:54:26;18.95;;;13.73;;
35552;SDS011;21656;46.054;13.614;2022-07-23T06:56:51;18.60;;;13.55;;
35552;SDS011;21656;46.054;13.614;2022-07-23T06:59:17;15.63;;;12.65;;
35552;SDS011;21656;46.054;13.614;2022-07-23T07:01:42;17.05;;;12.65;;
35552;SDS011;21656;46.054;13.614;2022-07-23T07:04:07;17.30;;;13.02;;
35552;SDS011;21656;46.054;13.614;2022-07-23T07:06:33;18.67;;;12.93;;
35552;SDS011;21656;46.054;13.614;2022-07-23T07:08:59;16.40;;;12.63;;
35552;SDS011;21656;46.054;13.614;2022-07-23T07:11:24;15.43;;;12.05;;
35552;SDS011;21656;46.054;13.614;2022-07-23T07:13:50;20.65;;;13.70;;
35552;SDS011;21656;46.054;13.614;2022-07-23T07:16:16;16.10;;;12.77;;
35552;SDS011;21656;46.054;13.614;2022-07-23T07:18:41;18.48;;;12.18;;
35552;SDS011;21656;46.054;13.614;2022-07-23T07:21:07;15.32;;;12.23;;
35552;SDS011;21656;46.054;13.614;2022-07-23T07:23:32;18.58;;;12.15;;
35552;SDS011;21656;46.054;13.614;2022-07-23T07:25:57;18.63;;;12.55;;
35552;SDS011;21656;46.054;13.614;2022-07-23T07:28:23;19.10;;;12.80;;
35552;SDS011;21656;46.054;13.614;2022-07-23T07:30:48;15.15;;;12.90;;
35552;SDS011;21656;46.054;13.614;2022-07-23T07:33:13;17.80;;;11.88;;
35552;SDS011;21656;46.054;13.614;2022-07-23T07:35:39;16.65;;;12.57;;
35552;SDS011;21656;46.054;13.614;2022-07-23T07:38:04;19.08;;;13.18;;
35552;SDS011;21656;46.054;13.614;2022-07-23T07:40:30;18.75;;;12.35;;
35552;SDS011;21656;46.054;13.614;2022-07-23T07:42:55;17.45;;;12.88;;
35552;SDS011;21656;46.054;13.614;2022-07-23T07:45:22;18.05;;;12.68;;
35552;SDS011;21656;46.054;13.614;2022-07-23T07:47:48;15.45;;;12.45;;
35552;SDS011;21656;46.054;13.614;2022-07-23T07:50:15;18.98;;;13.05;;
35552;SDS011;21656;46.054;13.614;2022-07-23T07:52:41;17.55;;;12.45;;
35552;SDS011;21656;46.054;13.614;2022-07-23T07:55:08;18.10;;;12.90;;
35552;SDS011;21656;46.054;13.614;2022-07-23T07:57:35;17.00;;;11.95;;
35552;SDS011;21656;46.054;13.614;2022-07-23T08:00:01;19.35;;;12.55;;
35552;SDS011;21656;46.054;13.614;2022-07-23T08:02:28;15.93;;;11.45;;
35552;SDS011;21656;46.054;13.614;2022-07-23T08:04:54;17.60;;;11.70;;
35552;SDS011;21656;46.054;13.614;2022-07-23T08:07:22;17.33;;;10.70;;
35552;SDS011;21656;46.054;13.614;2022-07-23T08:09:48;17.85;;;11.52;;
35552;SDS011;21656;46.054;13.614;2022-07-23T08:12:13;15.00;;;11.23;;
35552;SDS011;21656;46.054;13.614;2022-07-23T08:14:39;14.07;;;11.30;;
35552;SDS011;21656;46.054;13.614;2022-07-23T08:17:04;18.05;;;12.07;;
35552;SDS011;21656;46.054;13.614;2022-07-23T08:19:30;15.18;;;10.43;;
35552;SDS011;21656;46.054;13.614;2022-07-23T08:21:55;13.15;;;10.93;;
35552;SDS011;21656;46.054;13.614;2022-07-23T08:24:21;16.33;;;10.70;;
35552;SDS011;21656;46.054;13.614;2022-07-23T08:26:47;18.17;;;11.98;;
35552;SDS011;21656;46.054;13.614;2022-07-23T08:29:13;15.82;;;11.10;;
35552;SDS011;21656;46.054;13.614;2022-07-23T08:31:39;13.88;;;10.85;;
35552;SDS011;21656;46.054;13.614;2022-07-23T08:34:05;13.57;;;10.90;;
35552;SDS011;21656;46.054;13.614;2022-07-23T08:36:30;13.75;;;10.98;;
35552;SDS011;21656;46.054;13.614;2022-07-23T08:38:58;17.02;;;11.55;;
35552;SDS011;21656;46.054;13.614;2022-07-23T08:41:24;14.93;;;12.57;;
35552;SDS011;21656;46.054;13.614;2022-07-23T08:43:50;12.20;;;10.80;;
35552;SDS011;21656;46.054;13.614;2022-07-23T08:46:16;16.52;;;11.65;;
35552;SDS011;21656;46.054;13.614;2022-07-23T08:48:44;15.75;;;11.73;;
35552;SDS011;21656;46.054;13.614;2022-07-23T08:51:13;15.07;;;11.60;;
35552;SDS011;21656;46.054;13.614;2022-07-23T08:53:39;14.23;;;12.40;;
35552;SDS011;21656;46.054;13.614;2022-07-23T08:56:07;18.23;;;12.52;;
35552;SDS011;21656;46.054;13.614;2022-07-23T08:58:34;16.23;;;12.65;;
35552;SDS011;21656;46.054;13.614;2022-07-23T09:01:00;17.42;;;13.93;;
35552;SDS011;21656;46.054;13.614;2022-07-23T09:03:28;17.73;;;14.23;;
35552;SDS011;21656;46.054;13.614;2022-07-23T09:05:57;16.80;;;13.57;;
35552;SDS011;21656;46.054;13.614;2022-07-23T09:08:34;18.67;;;14.35;;
35552;SDS011;21656;46.054;13.614;2022-07-23T09:11:05;18.55;;;13.82;;
35552;SDS011;21656;46.054;13.614;2022-07-23T09:13:38;19.13;;;14.90;;
35552;SDS011;21656;46.054;13.614;2022-07-23T09:16:13;16.65;;;14.85;;
35552;SDS011;21656;46.054;13.614;2022-07-23T09:18:44;21.65;;;16.70;;
35552;SDS011;21656;46.054;13.614;2022-07-23T09:23:50;17.42;;;15.45;;
35552;SDS011;21656;46.054;13.614;2022-07-23T09:29:19;13.88;;;11.02;;
35552;SDS011;21656;46.054;13.614;2022-07-23T09:32:01;16.10;;;12.90;;
35552;SDS011;21656;46.054;13.614;2022-07-23T09:34:34;13.82;;;10.95;;
35552;SDS011;21656;46.054;13.614;2022-07-23T09:37:16;15.00;;;11.57;;
35552;SDS011;21656;46.054;13.614;2022-07-23T09:39:43;16.35;;;11.82;;
35552;SDS011;21656;46.054;13.614;2022-07-23T09:42:16;16.10;;;12.32;;
35552;SDS011;21656;46.054;13.614;2022-07-23T09:44:45;13.98;;;11.18;;
35552;SDS011;21656;46.054;13.614;2022-07-23T09:47:15;11.90;;;10.43;;
35552;SDS011;21656;46.054;13.614;2022-07-23T09:52:34;14.38;;;11.90;;
35552;SDS011;21656;46.054;13.614;2022-07-23T09:55:03;13.13;;;11.73;;
35552;SDS011;21656;46.054;13.614;2022-07-23T09:57:31;14.77;;;11.07;;
35552;SDS011;21656;46.054;13.614;2022-07-23T09:59:57;13.85;;;11.73;;
35552;SDS011;21656;46.054;13.614;2022-07-23T10:02:26;13.45;;;11.90;;
35552;SDS011;21656;46.054;13.614;2022-07-23T10:04:54;15.93;;;11.02;;
35552;SDS011;21656;46.054;13.614;2022-07-23T10:07:23;10.35;;;8.18;;
35552;SDS011;21656;46.054;13.614;2022-07-23T10:09:52;12.82;;;8.60;;
35552;SDS011;21656;46.054;13.614;2022-07-23T10:12:18;14.27;;;8.35;;
35552;SDS011;21656;46.054;13.614;2022-07-23T10:15:03;11.25;;;9.48;;
35552;SDS011;21656;46.054;13.614;2022-07-23T10:17:31;10.30;;;9.20;;
35552;SDS011;21656;46.054;13.614;2022-07-23T10:19:57;13.70;;;8.82;;
35552;SDS011;21656;46.054;13.614;2022-07-23T10:22:27;9.55;;;8.38;;
35552;SDS011;21656;46.054;13.614;2022-07-23T10:25:08;15.32;;;9.40;;
35552;SDS011;21656;46.054;13.614;2022-07-23T10:27:45;10.50;;;9.10;;
35552;SDS011;21656;46.054;13.614;2022-07-23T10:41:13;7.03;;;5.63;;
35552;SDS011;21656;46.054;13.614;2022-07-23T10:43:39;8.65;;;4.78;;
35552;SDS011;21656;46.054;13.614;2022-07-23T10:57:21;5.97;;;5.25;;
35552;SDS011;21656;46.054;13.614;2022-07-23T11:02:37;5.60;;;4.93;;
35552;SDS011;21656;46.054;13.614;2022-07-23T11:07:35;6.90;;;5.95;;
35552;SDS011;21656;46.054;13.614;2022-07-23T11:10:02;10.30;;;6.00;;
35552;SDS011;21656;46.054;13.614;2022-07-23T11:15:06;8.35;;;7.03;;
35552;SDS011;21656;46.054;13.614;2022-07-23T11:17:33;8.70;;;7.80;;
35552;SDS011;21656;46.054;13.614;2022-07-23T11:25:05;7.53;;;6.22;;
35552;SDS011;21656;46.054;13.614;2022-07-23T11:27:40;7.03;;;5.75;;
35552;SDS011;21656;46.054;13.614;2022-07-23T11:30:08;6.60;;;5.07;;
35552;SDS011;21656;46.054;13.614;2022-07-23T11:32:36;6.13;;;5.50;;
35552;SDS011;21656;46.054;13.614;2022-07-23T11:35:18;7.13;;;5.25;;
35552;SDS011;21656;46.054;13.614;2022-07-23T11:37:54;7.03;;;5.68;;
35552;SDS011;21656;46.054;13.614;2022-07-23T11:40:27;7.50;;;6.60;;
35552;SDS011;21656;46.054;13.614;2022-07-23T11:43:11;9.90;;;7.13;;
35552;SDS011;21656;46.054;13.614;2022-07-23T11:45:39;6.85;;;5.88;;
35552;SDS011;21656;46.054;13.614;2022-07-23T11:48:08;11.27;;;5.47;;
35552;SDS011;21656;46.054;13.614;2022-07-23T11:50:43;9.02;;;6.90;;
35552;SDS011;21656;46.054;13.614;2022-07-23T11:53:08;10.15;;;8.48;;
35552;SDS011;21656;46.054;13.614;2022-07-23T11:55:34;12.23;;;8.75;;
35552;SDS011;21656;46.054;13.614;2022-07-23T11:57:59;13.13;;;10.50;;
35552;SDS011;21656;46.054;13.614;2022-07-23T12:00:28;17.52;;;13.10;;
35552;SDS011;21656;46.054;13.614;2022-07-23T12:02:56;22.48;;;18.70;;
35552;SDS011;21656;46.054;13.614;2022-07-23T12:05:31;25.73;;;22.27;;
35552;SDS011;21656;46.054;13.614;2022-07-23T12:07:59;26.77;;;22.88;;
35552;SDS011;21656;46.054;13.614;2022-07-23T12:13:02;32.53;;;25.95;;
35552;SDS011;21656;46.054;13.614;2022-07-23T12:15:34;37.85;;;28.65;;
35552;SDS011;21656;46.054;13.614;2022-07-23T12:18:06;39.55;;;29.63;;
35552;SDS011;21656;46.054;13.614;2022-07-23T12:20:52;33.75;;;28.02;;
35552;SDS011;21656;46.054;13.614;2022-07-23T12:23:22;36.80;;;31.45;;
35552;SDS011;21656;46.054;13.614;2022-07-23T12:25:49;33.63;;;28.58;;
35552;SDS011;21656;46.054;13.614;2022-07-23T12:28:17;30.25;;;24.63;;
35552;SDS011;21656;46.054;13.614;2022-07-23T12:30:53;26.40;;;22.02;;
35552;SDS011;21656;46.054;13.614;2022-07-23T12:33:22;30.50;;;23.73;;
35552;SDS011;21656;46.054;13.614;2022-07-23T12:35:50;26.38;;;22.35;;
35552;SDS011;21656;46.054;13.614;2022-07-23T12:38:19;24.95;;;22.27;;
35552;SDS011;21656;46.054;13.614;2022-07-23T12:40:48;24.10;;;20.20;;
35552;SDS011;21656;46.054;13.614;2022-07-23T12:43:24;25.45;;;20.77;;
35552;SDS011;21656;46.054;13.614;2022-07-23T12:45:55;27.13;;;21.88;;
35552;SDS011;21656;46.054;13.614;2022-07-23T12:48:31;24.33;;;19.20;;
35552;SDS011;21656;46.054;13.614;2022-07-23T12:55:58;17.88;;;14.30;;
35552;SDS011;21656;46.054;13.614;2022-07-23T12:58:25;16.48;;;13.63;;
35552;SDS011;21656;46.054;13.614;2022-07-23T13:00:55;15.35;;;13.07;;
35552;SDS011;21656;46.054;13.614;2022-07-23T13:05:48;11.52;;;10.07;;
35552;SDS011;21656;46.054;13.614;2022-07-23T13:08:15;12.43;;;10.85;;
35552;SDS011;21656;46.054;13.614;2022-07-23T13:10:40;15.02;;;9.50;;
35552;SDS011;21656;46.054;13.614;2022-07-23T13:13:12;13.48;;;9.05;;
35552;SDS011;21656;46.054;13.614;2022-07-23T13:15:38;14.15;;;11.73;;
35552;SDS011;21656;46.054;13.614;2022-07-23T13:18:03;13.63;;;11.75;;
35552;SDS011;21656;46.054;13.614;2022-07-23T13:20:29;16.23;;;11.77;;
35552;SDS011;21656;46.054;13.614;2022-07-23T13:22:56;18.15;;;12.70;;
35552;SDS011;21656;46.054;13.614;2022-07-23T13:25:22;14.35;;;11.93;;
35552;SDS011;21656;46.054;13.614;2022-07-23T13:27:47;14.65;;;11.25;;
35552;SDS011;21656;46.054;13.614;2022-07-23T13:30:13;12.82;;;8.93;;
35552;SDS011;21656;46.054;13.614;2022-07-23T13:32:40;8.80;;;6.63;;
35552;SDS011;21656;46.054;13.614;2022-07-23T13:35:07;11.30;;;8.52;;
35552;SDS011;21656;46.054;13.614;2022-07-23T13:37:33;6.45;;;5.45;;
35552;SDS011;21656;46.054;13.614;2022-07-23T13:39:58;44.83;;;38.10;;
35552;SDS011;21656;46.054;13.614;2022-07-23T13:42:25;10.63;;;7.53;;
35552;SDS011;21656;46.054;13.614;2022-07-23T13:44:51;9.65;;;6.93;;
35552;SDS011;21656;46.054;13.614;2022-07-23T13:47:17;7.80;;;6.78;;
35552;SDS011;21656;46.054;13.614;2022-07-23T13:49:43;12.80;;;9.38;;
35552;SDS011;21656;46.054;13.614;2022-07-23T13:52:08;8.85;;;7.00;;
35552;SDS011;21656;46.054;13.614;2022-07-23T13:54:34;8.70;;;5.45;;
35552;SDS011;21656;46.054;13.614;2022-07-23T13:57:00;7.43;;;4.97;;
35552;SDS011;21656;46.054;13.614;2022-07-23T13:59:25;6.10;;;4.43;;
35552;SDS011;21656;46.054;13.614;2022-07-23T14:01:51;5.93;;;4.50;;
35552;SDS011;21656;46.054;13.614;2022-07-23T14:04:17;7.00;;;4.47;;
35552;SDS011;21656;46.054;13.614;2022-07-23T14:06:42;7.47;;;5.20;;
35552;SDS011;21656;46.054;13.614;2022-07-23T14:09:08;8.25;;;5.80;;
35552;SDS011;21656;46.054;13.614;2022-07-23T14:11:34;5.95;;;4.93;;
35552;SDS011;21656;46.054;13.614;2022-07-23T14:13:59;5.63;;;5.03;;
35552;SDS011;21656;46.054;13.614;2022-07-23T14:16:26;6.15;;;4.78;;
35552;SDS011;21656;46.054;13.614;2022-07-23T14:18:51;7.85;;;6.22;;
35552;SDS011;21656;46.054;13.614;2022-07-23T14:21:17;8.73;;;7.30;;
35552;SDS011;21656;46.054;13.614;2022-07-23T14:23:42;9.50;;;7.43;;
35552;SDS011;21656;46.054;13.614;2022-07-23T14:26:08;10.68;;;7.75;;
35552;SDS011;21656;46.054;13.614;2022-07-23T14:28:34;13.05;;;7.35;;
35552;SDS011;21656;46.054;13.614;2022-07-23T14:31:01;10.65;;;7.78;;
35552;SDS011;21656;46.054;13.614;2022-07-23T14:33:27;13.23;;;8.27;;
35552;SDS011;21656;46.054;13.614;2022-07-23T14:35:53;11.93;;;7.50;;
35552;SDS011;21656;46.054;13.614;2022-07-23T14:38:19;9.52;;;7.55;;
35552;SDS011;21656;46.054;13.614;2022-07-23T14:40:45;11.48;;;7.60;;
35552;SDS011;21656;46.054;13.614;2022-07-23T14:43:11;7.55;;;6.28;;
35552;SDS011;21656;46.054;13.614;2022-07-23T14:45:36;10.38;;;7.60;;
35552;SDS011;21656;46.054;13.614;2022-07-23T14:48:02;8.23;;;7.35;;
35552;SDS011;21656;46.054;13.614;2022-07-23T14:50:28;8.00;;;7.00;;
35552;SDS011;21656;46.054;13.614;2022-07-23T14:52:53;7.57;;;6.03;;
35552;SDS011;21656;46.054;13.614;2022-07-23T14:55:19;8.43;;;5.05;;
35552;SDS011;21656;46.054;13.614;2022-07-23T14:57:45;6.05;;;4.72;;
35552;SDS011;21656;46.054;13.614;2022-07-23T15:00:11;6.13;;;4.93;;
35552;SDS011;21656;46.054;13.614;2022-07-23T15:02:37;7.47;;;4.40;;
35552;SDS011;21656;46.054;13.614;2022-07-23T15:05:02;6.30;;;4.28;;
35552;SDS011;21656;46.054;13.614;2022-07-23T15:07:29;7.28;;;4.32;;
35552;SDS011;21656;46.054;13.614;2022-07-23T15:09:55;7.85;;;4.20;;
35552;SDS011;21656;46.054;13.614;2022-07-23T15:12:22;4.70;;;3.70;;
35552;SDS011;21656;46.054;13.614;2022-07-23T15:14:47;7.22;;;4.03;;
35552;SDS011;21656;46.054;13.614;2022-07-23T15:17:13;5.60;;;3.92;;
35552;SDS011;21656;46.054;13.614;2022-07-23T15:19:39;9.68;;;3.97;;
35552;SDS011;21656;46.054;13.614;2022-07-23T15:22:08;4.88;;;3.20;;
35552;SDS011;21656;46.054;13.614;2022-07-23T15:24:33;10.77;;;3.47;;
35552;SDS011;21656;46.054;13.614;2022-07-23T15:26:59;5.38;;;2.40;;
35552;SDS011;21656;46.054;13.614;2022-07-23T15:29:24;4.07;;;2.90;;
35552;SDS011;21656;46.054;13.614;2022-07-23T15:31:50;5.10;;;2.65;;
35552;SDS011;21656;46.054;13.614;2022-07-23T15:34:15;3.38;;;2.60;;
35552;SDS011;21656;46.054;13.614;2022-07-23T15:36:41;5.75;;;2.53;;
35552;SDS011;21656;46.054;13.614;2022-07-23T15:39:07;3.05;;;2.25;;
35552;SDS011;21656;46.054;13.614;2022-07-23T15:41:33;4.55;;;2.50;;
35552;SDS011;21656;46.054;13.614;2022-07-23T15:43:58;3.13;;;2.45;;
35552;SDS011;21656;46.054;13.614;2022-07-23T15:46:24;4.07;;;2.33;;
35552;SDS011;21656;46.054;13.614;2022-07-23T15:48:50;2.97;;;2.33;;
35552;SDS011;21656;46.054;13.614;2022-07-23T15:51:18;4.05;;;2.17;;
35552;SDS011;21656;46.054;13.614;2022-07-23T15:53:43;2.85;;;2.25;;
35552;SDS011;21656;46.054;13.614;2022-07-23T15:56:09;3.47;;;2.17;;
35552;SDS011;21656;46.054;13.614;2022-07-23T15:58:35;4.57;;;1.88;;
35552;SDS011;21656;46.054;13.614;2022-07-23T16:01:02;4.05;;;2.33;;
35552;SDS011;21656;46.054;13.614;2022-07-23T16:03:34;3.22;;;2.15;;
35552;SDS011;21656;46.054;13.614;2022-07-23T16:06:01;3.67;;;1.90;;
35552;SDS011;21656;46.054;13.614;2022-07-23T16:08:27;2.75;;;2.00;;
35552;SDS011;21656;46.054;13.614;2022-07-23T16:10:52;6.88;;;2.10;;
35552;SDS011;21656;46.054;13.614;2022-07-23T16:13:18;2.90;;;1.92;;
35552;SDS011;21656;46.054;13.614;2022-07-23T16:15:44;2.97;;;1.90;;
35552;SDS011;21656;46.054;13.614;2022-07-23T16:18:10;3.85;;;2.60;;
35552;SDS011;21656;46.054;13.614;2022-07-23T16:20:37;2.35;;;1.95;;
35552;SDS011;21656;46.054;13.614;2022-07-23T16:23:04;2.67;;;2.15;;
35552;SDS011;21656;46.054;13.614;2022-07-23T16:25:31;4.28;;;2.70;;
35552;SDS011;21656;46.054;13.614;2022-07-23T16:27:58;3.47;;;2.30;;
35552;SDS011;21656;46.054;13.614;2022-07-23T16:30:24;3.83;;;2.78;;
35552;SDS011;21656;46.054;13.614;2022-07-23T16:32:49;8.45;;;2.40;;
35552;SDS011;21656;46.054;13.614;2022-07-23T16:35:15;4.03;;;2.30;;
35552;SDS011;21656;46.054;13.614;2022-07-23T16:37:40;4.70;;;2.65;;
35552;SDS011;21656;46.054;13.614;2022-07-23T16:40:07;3.78;;;2.35;;
35552;SDS011;21656;46.054;13.614;2022-07-23T16:42:34;5.32;;;2.80;;
35552;SDS011;21656;46.054;13.614;2022-07-23T16:45:01;5.15;;;2.63;;
35552;SDS011;21656;46.054;13.614;2022-07-23T16:47:28;4.72;;;2.85;;
35552;SDS011;21656;46.054;13.614;2022-07-23T16:49:53;4.00;;;2.75;;
35552;SDS011;21656;46.054;13.614;2022-07-23T16:52:19;7.65;;;2.72;;
35552;SDS011;21656;46.054;13.614;2022-07-23T16:54:44;3.53;;;2.55;;
35552;SDS011;21656;46.054;13.614;2022-07-23T16:57:10;3.45;;;2.78;;
35552;SDS011;21656;46.054;13.614;2022-07-23T16:59:37;4.82;;;3.28;;
35552;SDS011;21656;46.054;13.614;2022-07-23T17:02:02;8.60;;;2.97;;
35552;SDS011;21656;46.054;13.614;2022-07-23T17:04:28;3.83;;;2.70;;
35552;SDS011;21656;46.054;13.614;2022-07-23T17:06:54;5.63;;;3.15;;
35552;SDS011;21656;46.054;13.614;2022-07-23T17:09:19;5.07;;;2.85;;
35552;SDS011;21656;46.054;13.614;2022-07-23T17:11:45;8.52;;;3.10;;
35552;SDS011;21656;46.054;13.614;2022-07-23T17:14:11;5.20;;;2.80;;
35552;SDS011;21656;46.054;13.614;2022-07-23T17:16:38;3.83;;;2.92;;
35552;SDS011;21656;46.054;13.614;2022-07-23T17:19:04;3.35;;;2.55;;
35552;SDS011;21656;46.054;13.614;2022-07-23T17:21:33;4.93;;;2.92;;
35552;SDS011;21656;46.054;13.614;2022-07-23T17:24:00;7.78;;;2.80;;
35552;SDS011;21656;46.054;13.614;2022-07-23T17:26:26;6.15;;;2.88;;
35552;SDS011;21656;46.054;13.614;2022-07-23T17:28:51;4.97;;;2.97;;
35552;SDS011;21656;46.054;13.614;2022-07-23T17:31:18;8.02;;;3.22;;
35552;SDS011;21656;46.054;13.614;2022-07-23T17:33:44;5.07;;;2.50;;
35552;SDS011;21656;46.054;13.614;2022-07-23T17:36:11;5.63;;;3.08;;
35552;SDS011;21656;46.054;13.614;2022-07-23T17:38:36;5.80;;;3.30;;
35552;SDS011;21656;46.054;13.614;2022-07-23T17:41:03;3.92;;;2.90;;
35552;SDS011;21656;46.054;13.614;2022-07-23T17:43:29;4.18;;;2.95;;
35552;SDS011;21656;46.054;13.614;2022-07-23T17:45:55;6.72;;;2.70;;
35552;SDS011;21656;46.054;13.614;2022-07-23T17:48:22;7.90;;;3.28;;
35552;SDS011;21656;46.054;13.614;2022-07-23T17:50:50;4.55;;;2.90;;
35552;SDS011;21656;46.054;13.614;2022-07-23T17:53:15;4.85;;;2.72;;
35552;SDS011;21656;46.054;13.614;2022-07-23T17:55:41;4.28;;;3.00;;
35552;SDS011;21656;46.054;13.614;2022-07-23T17:58:07;4.90;;;2.97;;
35552;SDS011;21656;46.054;13.614;2022-07-23T18:00:34;4.43;;;3.00;;
35552;SDS011;21656;46.054;13.614;2022-07-23T18:03:02;3.55;;;2.90;;
35552;SDS011;21656;46.054;13.614;2022-07-23T18:05:29;5.70;;;3.08;;
35552;SDS011;21656;46.054;13.614;2022-07-23T18:07:55;8.60;;;3.42;;
35552;SDS011;21656;46.054;13.614;2022-07-23T18:10:20;6.63;;;3.47;;
35552;SDS011;21656;46.054;13.614;2022-07-23T18:12:46;6.38;;;2.90;;
35552;SDS011;21656;46.054;13.614;2022-07-23T18:15:13;8.23;;;3.67;;
35552;SDS011;21656;46.054;13.614;2022-07-23T18:17:38;8.55;;;3.75;;
35552;SDS011;21656;46.054;13.614;2022-07-23T18:20:05;7.70;;;5.93;;
35552;SDS011;21656;46.054;13.614;2022-07-23T18:22:32;4.22;;;3.30;;
35552;SDS011;21656;46.054;13.614;2022-07-23T18:24:58;4.80;;;2.95;;
35552;SDS011;21656;46.054;13.614;2022-07-23T18:27:23;6.43;;;3.03;;
35552;SDS011;21656;46.054;13.614;2022-07-23T18:29:49;4.65;;;3.10;;
35552;SDS011;21656;46.054;13.614;2022-07-23T18:32:15;4.10;;;3.13;;
35552;SDS011;21656;46.054;13.614;2022-07-23T18:34:40;4.75;;;3.17;;
35552;SDS011;21656;46.054;13.614;2022-07-23T18:37:09;5.90;;;3.20;;
35552;SDS011;21656;46.054;13.614;2022-07-23T18:39:35;9.02;;;3.20;;
35552;SDS011;21656;46.054;13.614;2022-07-23T18:42:01;7.95;;;3.47;;
35552;SDS011;21656;46.054;13.614;2022-07-23T18:44:34;4.37;;;3.77;;
35552;SDS011;21656;46.054;13.614;2022-07-23T18:47:02;7.40;;;3.35;;
35552;SDS011;21656;46.054;13.614;2022-07-23T18:49:28;10.95;;;6.60;;
35552;SDS011;21656;46.054;13.614;2022-07-23T18:51:54;4.97;;;3.03;;
35552;SDS011;21656;46.054;13.614;2022-07-23T18:54:20;4.15;;;3.25;;
35552;SDS011;21656;46.054;13.614;2022-07-23T18:56:47;5.80;;;3.10;;
35552;SDS011;21656;46.054;13.614;2022-07-23T18:59:12;9.40;;;3.67;;
35552;SDS011;21656;46.054;13.614;2022-07-23T19:01:38;13.20;;;3.42;;
35552;SDS011;21656;46.054;13.614;2022-07-23T19:04:03;4.13;;;2.92;;
35552;SDS011;21656;46.054;13.614;2022-07-23T19:06:29;4.97;;;3.40;;
35552;SDS011;21656;46.054;13.614;2022-07-23T19:08:55;4.30;;;3.40;;
35552;SDS011;21656;46.054;13.614;2022-07-23T19:11:21;6.35;;;3.05;;
35552;SDS011;21656;46.054;13.614;2022-07-23T19:13:47;8.27;;;3.60;;
35552;SDS011;21656;46.054;13.614;2022-07-23T19:16:13;4.15;;;3.05;;
35552;SDS011;21656;46.054;13.614;2022-07-23T19:18:39;4.82;;;3.20;;
35552;SDS011;21656;46.054;13.614;2022-07-23T19:21:05;6.43;;;4.45;;
35552;SDS011;21656;46.054;13.614;2022-07-23T19:23:32;9.27;;;5.50;;
35552;SDS011;21656;46.054;13.614;2022-07-23T19:25:58;4.18;;;3.25;;
35552;SDS011;21656;46.054;13.614;2022-07-23T19:28:24;5.22;;;3.15;;
35552;SDS011;21656;46.054;13.614;2022-07-23T19:30:51;6.63;;;3.50;;
35552;SDS011;21656;46.054;13.614;2022-07-23T19:33:17;5.00;;;3.22;;
35552;SDS011;21656;46.054;13.614;2022-07-23T19:35:43;6.18;;;3.70;;
35552;SDS011;21656;46.054;13.614;2022-07-23T19:38:11;9.43;;;3.50;;
35552;SDS011;21656;46.054;13.614;2022-07-23T19:40:36;9.40;;;4.72;;
35552;SDS011;21656;46.054;13.614;2022-07-23T19:43:02;7.90;;;3.45;;
35552;SDS011;21656;46.054;13.614;2022-07-23T19:45:27;5.43;;;3.58;;
35552;SDS011;21656;46.054;13.614;2022-07-23T19:47:53;4.93;;;3.88;;
35552;SDS011;21656;46.054;13.614;2022-07-23T19:50:19;4.43;;;3.53;;
35552;SDS011;21656;46.054;13.614;2022-07-23T19:52:45;3.85;;;3.20;;
35552;SDS011;21656;46.054;13.614;2022-07-23T19:55:10;6.20;;;3.70;;
35552;SDS011;21656;46.054;13.614;2022-07-23T19:57:37;6.00;;;3.45;;
35552;SDS011;21656;46.054;13.614;2022-07-23T20:00:04;9.32;;;3.60;;
35552;SDS011;21656;46.054;13.614;2022-07-23T20:02:32;7.95;;;4.10;;
35552;SDS011;21656;46.054;13.614;2022-07-23T20:04:58;4.07;;;3.45;;
35552;SDS011;21656;46.054;13.614;2022-07-23T20:07:24;7.43;;;4.20;;
35552;SDS011;21656;46.054;13.614;2022-07-23T20:09:50;8.15;;;4.00;;
35552;SDS011;21656;46.054;13.614;2022-07-23T20:12:16;7.80;;;4.20;;
35552;SDS011;21656;46.054;13.614;2022-07-23T20:14:42;7.22;;;3.83;;
35552;SDS011;21656;46.054;13.614;2022-07-23T20:17:07;5.63;;;3.47;;
35552;SDS011;21656;46.054;13.614;2022-07-23T20:19:33;8.98;;;6.72;;
35552;SDS011;21656;46.054;13.614;2022-07-23T20:21:59;6.32;;;3.90;;
35552;SDS011;21656;46.054;13.614;2022-07-23T20:24:24;4.18;;;3.13;;
35552;SDS011;21656;46.054;13.614;2022-07-23T20:26:50;8.55;;;3.72;;
35552;SDS011;21656;46.054;13.614;2022-07-23T20:29:17;4.68;;;3.67;;
35552;SDS011;21656;46.054;13.614;2022-07-23T20:31:44;6.05;;;3.10;;
35552;SDS011;21656;46.054;13.614;2022-07-23T20:34:10;6.10;;;3.38;;
35552;SDS011;21656;46.054;13.614;2022-07-23T20:36:36;4.43;;;3.25;;
35552;SDS011;21656;46.054;13.614;2022-07-23T20:39:03;4.88;;;3.72;;
35552;SDS011;21656;46.054;13.614;2022-07-23T20:41:31;4.88;;;3.88;;
35552;SDS011;21656;46.054;13.614;2022-07-23T20:43:58;5.63;;;3.58;;
35552;SDS011;21656;46.054;13.614;2022-07-23T20:46:24;5.13;;;3.30;;
35552;SDS011;21656;46.054;13.614;2022-07-23T20:48:52;4.95;;;3.47;;
35552;SDS011;21656;46.054;13.614;2022-07-23T20:51:18;4.22;;;3.50;;
35552;SDS011;21656;46.054;13.614;2022-07-23T20:53:44;4.63;;;3.60;;
35552;SDS011;21656;46.054;13.614;2022-07-23T20:56:10;6.10;;;3.65;;